Time;durP1;ratioP1;P1;durP2;ratioP2;P2;SDS_P1;SDS_P2;PMS_P1;PMS_P2;Temp;Humidity;BMP_temperature;BMP_pressure;BME280_temperature;BME280_humidity;BME280_pressure;Samples;Min_cycle;Max_cycle;Signal;HPM_P1;HPM_P2
2021/04/24 00:01:03;;;;;;;5.03;4.73;;;8.30;49.60;;;;;;5000406;28;20174;-89
2021/04/24 00:03:29;;;;;;;5.40;4.13;;;8.20;49.10;;;;;;5016268;28;20300;-90
2021/04/24 00:05:55;;;;;;;7.03;4.80;;;9.40;50.00;;;;;;4999086;28;20452;-90
2021/04/24 00:08:21;;;;;;;5.78;4.32;;;8.00;48.60;;;;;;5016635;28;20175;-90
2021/04/24 00:10:47;;;;;;;6.10;5.20;;;8.00;49.10;;;;;;5015929;28;20165;-90
2021/04/24 00:13:14;;;;;;;5.77;5.27;;;8.00;49.60;;;;;;4998269;28;20188;-90
2021/04/24 00:15:42;;;;;;;5.67;5.13;;;7.90;49.70;;;;;;4998120;28;20416;-90
2021/04/24 00:18:09;;;;;;;4.90;4.70;;;7.90;49.80;;;;;;5017017;28;20463;-90
2021/04/24 00:20:35;;;;;;;8.30;4.53;;;7.80;50.00;;;;;;5016652;28;20533;-89
2021/04/24 00:23:01;;;;;;;8.33;5.33;;;8.00;50.10;;;;;;5016883;28;20412;-91
2021/04/24 00:25:27;;;;;;;5.07;4.47;;;7.60;49.90;;;;;;4999287;28;20172;-90
2021/04/24 00:27:53;;;;;;;6.78;4.35;;;7.50;50.00;;;;;;5016958;28;20477;-89
2021/04/24 00:30:20;;;;;;;9.50;3.93;;;7.50;49.60;;;;;;4998141;28;20259;-89
2021/04/24 00:32:46;;;;;;;5.70;3.80;;;7.50;49.50;;;;;;4998187;28;20179;-89
2021/04/24 00:35:13;;;;;;;4.03;3.70;;;7.50;49.50;;;;;;4998493;28;20420;-90
2021/04/24 00:37:39;;;;;;;4.43;4.13;;;7.40;49.50;;;;;;5015388;28;20207;-90
2021/04/24 00:40:07;;;;;;;3.57;3.40;;;7.40;49.50;;;;;;4998270;28;20452;-89
2021/04/24 00:42:33;;;;;;;4.20;4.00;;;7.40;49.60;;;;;;4999585;28;20180;-89
2021/04/24 00:44:59;;;;;;;3.55;3.25;;;7.30;49.50;;;;;;4998584;28;20688;-89
2021/04/24 00:47:25;;;;;;;3.97;3.67;;;7.30;49.70;;;;;;4998474;28;20177;-89
2021/04/24 00:49:51;;;;;;;7.40;4.40;;;7.20;49.80;;;;;;5001038;28;20173;-90
2021/04/24 00:52:18;;;;;;;5.80;3.40;;;7.20;49.70;;;;;;5027918;28;20402;-89
2021/04/24 00:54:44;;;;;;;4.20;3.40;;;7.10;49.70;;;;;;5035109;28;20161;-89
2021/04/24 00:57:11;;;;;;;4.40;3.63;;;7.10;49.70;;;;;;5035567;28;20492;-89
2021/04/24 00:59:37;;;;;;;6.60;3.70;;;6.60;49.50;;;;;;5018010;28;20195;-89
2021/04/24 01:02:04;;;;;;;4.27;3.97;;;7.10;49.90;;;;;;4998394;28;20449;-90
2021/04/24 01:04:31;;;;;;;3.90;3.70;;;7.00;49.90;;;;;;4997470;28;20455;-89
2021/04/24 01:06:57;;;;;;;4.05;3.60;;;6.90;49.80;;;;;;4997548;28;20420;-90
2021/04/24 01:09:23;;;;;;;4.97;3.38;;;6.90;49.90;;;;;;4997305;28;20204;-89
2021/04/24 01:11:48;;;;;;;3.23;2.93;;;6.90;50.00;;;;;;4997377;28;20390;-90
2021/04/24 01:14:14;;;;;;;3.50;3.20;;;6.80;50.10;;;;;;4997409;28;20168;-89
2021/04/24 01:16:42;;;;;;;3.00;2.80;;;6.80;50.30;;;;;;5015237;28;20410;-89
2021/04/24 01:19:09;;;;;;;3.22;3.03;;;6.80;50.40;;;;;;4996970;28;20183;-90
2021/04/24 01:21:36;;;;;;;2.92;2.72;;;6.80;50.40;;;;;;4997259;28;20172;-90
2021/04/24 01:24:02;;;;;;;3.40;3.10;;;6.70;50.40;;;;;;5014935;28;20173;-90
2021/04/24 01:26:27;;;;;;;3.80;3.60;;;6.90;50.40;;;;;;5014841;28;20482;-91
2021/04/24 01:28:53;;;;;;;8.23;4.20;;;6.70;50.20;;;;;;4997001;28;20391;-90
2021/04/24 01:31:19;;;;;;;4.03;3.43;;;6.90;50.30;;;;;;5014630;28;20386;-90
2021/04/24 01:33:44;;;;;;;8.33;3.97;;;6.90;50.30;;;;;;4996729;28;20204;-90
2021/04/24 01:36:12;;;;;;;13.73;3.60;;;6.90;50.50;;;;;;4997039;28;20168;-89
2021/04/24 01:38:37;;;;;;;3.38;3.08;;;6.90;50.40;;;;;;4997004;28;20188;-90
2021/04/24 01:41:03;;;;;;;4.43;3.30;;;6.90;50.50;;;;;;5014980;28;20216;-89
2021/04/24 01:43:31;;;;;;;3.40;3.20;;;6.80;50.50;;;;;;5016303;28;20176;-90
2021/04/24 01:45:56;;;;;;;7.10;3.55;;;6.80;50.80;;;;;;4996852;28;20260;-90
2021/04/24 01:48:22;;;;;;;4.50;4.20;;;6.90;50.90;;;;;;5013989;28;20193;-90
2021/04/24 01:50:47;;;;;;;3.80;3.53;;;6.60;50.90;;;;;;4996593;28;20188;-90
2021/04/24 01:53:20;;;;;;;3.60;3.40;;;6.50;50.60;;;;;;5013895;28;20525;-90
2021/04/24 01:55:47;;;;;;;4.03;3.83;;;7.00;50.40;;;;;;4996181;28;20172;-90
2021/04/24 01:58:17;;;;;;;6.07;4.53;;;7.10;50.30;;;;;;5013815;28;20463;-90
2021/04/24 02:00:56;;;;;;;4.73;4.37;;;6.70;49.90;;;;;;4996190;28;20168;-91
2021/04/24 02:03:22;;;;;;;5.50;4.73;;;7.10;50.30;;;;;;4996371;28;20408;-91
2021/04/24 02:05:48;;;;;;;5.75;5.20;;;8.90;51.60;;;;;;5013700;28;20412;-90
2021/04/24 02:08:24;;;;;;;6.20;5.60;;;6.80;50.40;;;;;;4996059;28;20580;-90
2021/04/24 02:10:53;;;;;;;5.22;4.78;;;7.00;50.60;;;;;;5013547;28;20173;-90
2021/04/24 02:13:22;;;;;;;4.88;4.35;;;7.00;50.70;;;;;;4996023;28;20184;-90
2021/04/24 02:15:49;;;;;;;4.57;4.23;;;7.00;50.70;;;;;;4996347;28;20655;-89
2021/04/24 02:18:14;;;;;;;10.30;4.10;;;7.00;50.70;;;;;;5013365;28;20446;-89
2021/04/24 02:20:42;;;;;;;4.80;3.80;;;6.90;50.60;;;;;;5013654;28;20375;-89
2021/04/24 02:23:13;;;;;;;4.82;4.47;;;6.80;50.70;;;;;;5013794;28;20172;-89
2021/04/24 02:25:39;;;;;;;5.75;3.67;;;6.80;50.90;;;;;;4996127;28;20164;-89
2021/04/24 02:28:05;;;;;;;4.50;3.50;;;6.80;50.90;;;;;;5013933;28;20164;-89
2021/04/24 02:30:31;;;;;;;3.40;3.20;;;8.40;51.80;;;;;;5013849;28;20386;-90
2021/04/24 02:32:56;;;;;;;5.10;3.80;;;6.80;50.60;;;;;;4996032;28;20181;-89
2021/04/24 02:35:33;;;;;;;6.80;3.57;;;6.80;50.70;;;;;;4996063;28;20165;-90
2021/04/24 02:37:59;;;;;;;3.55;3.33;;;6.80;50.80;;;;;;4995605;28;20219;-91
2021/04/24 02:40:25;;;;;;;6.93;4.50;;;6.70;51.00;;;;;;4995945;28;20220;-90
2021/04/24 02:42:51;;;;;;;3.07;2.97;;;6.60;51.10;;;;;;4995752;28;20176;-90
2021/04/24 02:45:18;;;;;;;4.60;4.13;;;6.60;51.20;;;;;;4996035;28;20434;-90
2021/04/24 02:47:44;;;;;;;5.93;3.90;;;6.60;51.20;;;;;;4995854;28;20938;-90
2021/04/24 02:50:14;;;;;;;7.25;4.50;;;6.60;51.20;;;;;;4995996;28;20609;-90
2021/04/24 02:52:40;;;;;;;4.50;4.05;;;6.50;51.70;;;;;;4995926;28;20179;-91
2021/04/24 02:55:07;;;;;;;10.17;3.60;;;6.50;51.70;;;;;;5013286;28;20165;-90
2021/04/24 02:57:32;;;;;;;4.90;4.30;;;6.50;52.00;;;;;;5013303;28;20292;-90
2021/04/24 02:59:58;;;;;;;7.80;3.57;;;6.30;51.90;;;;;;4995678;28;20632;-90
2021/04/24 03:02:23;;;;;;;3.53;3.27;;;6.20;52.30;;;;;;5013706;28;20176;-90
2021/04/24 03:04:49;;;;;;;6.00;3.60;;;6.10;52.70;;;;;;4995718;28;20175;-90
2021/04/24 03:07:15;;;;;;;6.80;3.50;;;5.40;52.40;;;;;;5013202;28;20176;-89
2021/04/24 03:09:40;;;;;;;7.30;4.10;;;6.00;53.10;;;;;;5013425;28;20260;-90
2021/04/24 03:12:07;;;;;;;4.10;3.80;;;5.90;53.30;;;;;;4995479;28;20457;-90
2021/04/24 03:14:33;;;;;;;5.03;4.03;;;6.00;53.20;;;;;;4995628;28;20172;-89
2021/04/24 03:16:59;;;;;;;4.33;3.93;;;6.10;53.00;;;;;;4995512;28;20270;-89
2021/04/24 03:19:25;;;;;;;6.47;4.20;;;6.10;52.70;;;;;;4995827;28;20451;-89
2021/04/24 03:21:50;;;;;;;8.17;3.87;;;6.10;52.80;;;;;;5013390;28;20239;-88
2021/04/24 03:24:16;;;;;;;7.53;3.90;;;6.20;52.70;;;;;;4996624;28;20177;-90
2021/04/24 03:26:42;;;;;;;8.53;4.47;;;6.10;52.90;;;;;;4999556;28;20624;-89
2021/04/24 03:29:07;;;;;;;3.10;3.00;;;6.00;53.00;;;;;;5017101;28;20219;-90
2021/04/24 03:31:33;;;;;;;5.47;3.80;;;6.00;53.10;;;;;;5016749;28;20173;-89
2021/04/24 03:33:59;;;;;;;5.43;4.30;;;5.90;53.20;;;;;;5016887;28;20181;-89
2021/04/24 03:36:25;;;;;;;4.35;4.05;;;5.80;53.10;;;;;;5016808;28;20171;-90
2021/04/24 03:38:50;;;;;;;4.10;3.57;;;5.80;53.30;;;;;;4999281;28;20176;-89
2021/04/24 03:41:16;;;;;;;8.43;4.20;;;5.70;53.60;;;;;;4998844;28;20221;-90
2021/04/24 03:43:41;;;;;;;4.27;3.83;;;5.60;54.10;;;;;;4999767;28;20192;-89
2021/04/24 03:46:07;;;;;;;9.33;4.23;;;5.40;54.20;;;;;;4999400;28;20243;-89
2021/04/24 03:48:33;;;;;;;7.20;4.50;;;5.30;54.50;;;;;;5017169;28;20218;-89
2021/04/24 03:51:00;;;;;;;6.50;5.72;;;5.30;55.30;;;;;;4999356;28;20615;-89
2021/04/24 03:53:26;;;;;;;4.18;3.78;;;5.30;55.10;;;;;;5016433;28;20161;-90
2021/04/24 03:55:51;;;;;;;4.90;4.30;;;6.30;55.80;;;;;;4998673;28;20691;-90
2021/04/24 03:58:17;;;;;;;4.73;4.30;;;5.20;55.50;;;;;;4998651;28;20217;-89
2021/04/24 04:00:43;;;;;;;4.70;4.27;;;5.20;55.30;;;;;;4998722;28;20250;-90
2021/04/24 04:03:09;;;;;;;7.03;5.57;;;5.00;55.20;;;;;;5016520;28;20184;-90
2021/04/24 04:05:44;;;;;;;4.30;4.10;;;5.00;54.50;;;;;;4998901;28;20173;-90
2021/04/24 04:08:12;;;;;;;5.68;4.28;;;5.20;54.50;;;;;;4999003;28;20186;-90
2021/04/24 04:10:39;;;;;;;8.52;4.72;;;5.30;54.40;;;;;;4999054;28;20211;-90
2021/04/24 04:13:06;;;;;;;9.25;4.47;;;5.20;54.20;;;;;;5026864;28;20172;-90
2021/04/24 04:15:32;;;;;;;5.57;4.90;;;4.90;53.90;;;;;;5030475;28;20172;-87
2021/04/24 04:18:11;;;;;;;5.87;4.20;;;5.20;54.80;;;;;;5015392;28;20204;-90
2021/04/24 04:20:39;;;;;;;5.28;4.75;;;5.10;55.60;;;;;;5012624;28;20386;-90
2021/04/24 04:23:05;;;;;;;9.93;4.43;;;5.10;55.70;;;;;;5016482;28;20177;-88
2021/04/24 04:25:31;;;;;;;7.33;5.80;;;;;;;;;;5037067;28;20192;-90
2021/04/24 04:27:57;;;;;;;4.90;4.50;;;5.10;54.70;;;;;;5015754;28;20415;-90
2021/04/24 04:30:23;;;;;;;6.57;4.80;;;5.30;55.10;;;;;;4998275;28;20179;-90
2021/04/24 04:32:49;;;;;;;5.80;5.00;;;5.30;54.90;;;;;;4998003;28;20172;-90
2021/04/24 04:35:16;;;;;;;4.90;4.50;;;5.30;54.80;;;;;;4998703;28;20172;-90
2021/04/24 04:37:42;;;;;;;6.18;5.32;;;5.20;54.60;;;;;;4998891;28;20208;-89
2021/04/24 04:40:12;;;;;;;8.47;4.50;;;5.20;54.90;;;;;;4998184;28;20252;-81
2021/04/24 04:42:38;;;;;;;10.15;5.57;;;5.40;54.60;;;;;;5015758;28;20868;-90
2021/04/24 04:45:05;;;;;;;8.95;5.20;;;5.50;54.50;;;;;;4998164;28;20672;-89
2021/04/24 04:47:31;;;;;;;8.00;5.35;;;5.50;54.70;;;;;;5016588;28;20211;-89
2021/04/24 04:49:57;;;;;;;9.10;5.30;;;5.50;54.50;;;;;;4998796;28;20168;-90
2021/04/24 04:52:22;;;;;;;9.23;4.97;;;5.50;55.00;;;;;;5015266;28;20204;-90
2021/04/24 04:54:49;;;;;;;5.70;5.20;;;5.60;55.20;;;;;;5021966;28;20232;-89
2021/04/24 04:57:15;;;;;;;10.45;5.63;;;5.70;55.00;;;;;;5021242;28;20223;-89
2021/04/24 04:59:40;;;;;;;6.07;4.90;;;5.80;54.30;;;;;;5018750;28;20173;-89
2021/04/24 05:02:06;;;;;;;12.60;5.67;;;5.90;54.00;;;;;;4997379;28;20180;-87
2021/04/24 05:04:33;;;;;;;5.00;4.53;;;6.00;53.70;;;;;;4997451;28;20192;-90
2021/04/24 05:06:59;;;;;;;9.57;5.35;;;5.90;53.50;;;;;;5015351;28;20218;-89
2021/04/24 05:09:25;;;;;;;6.90;4.93;;;6.00;53.40;;;;;;5015384;28;20184;-89
2021/04/24 05:11:50;;;;;;;9.02;5.55;;;6.10;53.40;;;;;;4307357;28;10000720;-88
2021/04/24 05:14:17;;;;;;;6.20;5.70;;;6.20;53.30;;;;;;4994755;28;20195;-90
2021/04/24 05:16:43;;;;;;;13.43;5.70;;;6.30;53.10;;;;;;4995186;28;20212;-89
2021/04/24 05:19:09;;;;;;;6.00;5.50;;;6.40;52.70;;;;;;4995106;28;20482;-90
2021/04/24 05:21:35;;;;;;;6.40;5.50;;;6.50;52.70;;;;;;5012919;28;20498;-86
2021/04/24 05:24:05;;;;;;;9.27;5.47;;;6.60;52.20;;;;;;5012964;28;20176;-90
2021/04/24 05:26:31;;;;;;;5.60;5.10;;;8.10;52.70;;;;;;5013016;28;20223;-90
2021/04/24 05:28:56;;;;;;;5.83;5.23;;;6.40;51.80;;;;;;5012305;28;20719;-90
2021/04/24 05:31:23;;;;;;;5.27;4.73;;;8.40;54.20;;;;;;5012573;28;20624;-91
2021/04/24 05:33:48;;;;;;;6.70;5.40;;;6.80;53.60;;;;;;4995423;28;20184;-89
2021/04/24 05:36:16;;;;;;;7.03;4.63;;;7.10;52.00;;;;;;5012505;28;20907;-90
2021/04/24 05:38:42;;;;;;;8.33;7.70;;;7.30;51.80;;;;;;5014277;28;20231;-89
2021/04/24 05:41:11;;;;;;;7.20;5.90;;;7.40;50.70;;;;;;4996379;28;20484;-87
2021/04/24 05:43:37;;;;;;;8.10;5.50;;;7.70;50.70;;;;;;4997665;28;20424;-89
2021/04/24 05:46:03;;;;;;;6.40;5.77;;;7.80;50.30;;;;;;4997355;28;20947;-90
2021/04/24 05:48:30;;;;;;;5.83;5.10;;;7.60;49.60;;;;;;4996713;28;20439;-90
2021/04/24 05:50:56;;;;;;;5.53;5.13;;;8.30;48.90;;;;;;5000141;28;20260;-89
2021/04/24 05:53:22;;;;;;;15.50;5.80;;;8.60;48.50;;;;;;4997412;28;20893;-90
2021/04/24 05:55:48;;;;;;;15.47;6.17;;;8.50;48.20;;;;;;4995697;28;20492;-90
2021/04/24 05:58:13;;;;;;;5.70;5.17;;;8.70;48.00;;;;;;5013850;28;20250;-90
2021/04/24 06:00:39;;;;;;;8.77;5.30;;;9.10;47.60;;;;;;4995775;28;20169;-89
2021/04/24 06:03:04;;;;;;;8.83;5.80;;;9.60;48.30;;;;;;4995777;28;20657;-88
2021/04/24 06:05:30;;;;;;;6.63;5.00;;;9.80;48.50;;;;;;4995850;28;20187;-88
2021/04/24 06:07:56;;;;;;;8.70;5.40;;;10.10;47.40;;;;;;5013447;28;20168;-89
2021/04/24 06:10:21;;;;;;;7.20;6.13;;;10.40;46.70;;;;;;4996177;28;20208;-86
2021/04/24 06:12:48;;;;;;;12.67;5.20;;;10.50;45.00;;;;;;5013736;28;20173;-89
2021/04/24 06:15:18;;;;;;;6.67;5.20;;;10.80;44.20;;;;;;5013468;28;20203;-89
2021/04/24 06:17:43;;;;;;;9.57;4.70;;;10.90;43.70;;;;;;5013811;28;20478;-89
2021/04/24 06:20:11;;;;;;;5.77;5.20;;;11.10;43.20;;;;;;4996448;28;20935;-89
2021/04/24 06:22:38;;;;;;;6.13;5.33;;;11.30;42.80;;;;;;5014061;28;20272;-88
2021/04/24 06:25:08;;;;;;;8.77;5.10;;;11.40;42.50;;;;;;5013523;28;20412;-89
2021/04/24 06:27:34;;;;;;;9.07;6.07;;;11.70;41.90;;;;;;4995878;28;20438;-87
2021/04/24 06:30:00;;;;;;;5.53;5.03;;;12.00;41.60;;;;;;5013688;28;20412;-90
2021/04/24 06:32:26;;;;;;;7.80;5.70;;;12.20;41.30;;;;;;5013219;28;20411;-89
2021/04/24 06:34:51;;;;;;;7.27;5.87;;;12.10;41.00;;;;;;5013774;28;20184;-89
2021/04/24 06:37:18;;;;;;;5.67;5.13;;;11.70;41.70;;;;;;5013739;28;20963;-89
2021/04/24 06:39:43;;;;;;;10.00;5.47;;;11.90;42.30;;;;;;5013699;28;20307;-87
2021/04/24 06:42:09;;;;;;;9.57;6.23;;;12.20;43.00;;;;;;5013929;28;20439;-90
2021/04/24 06:44:35;;;;;;;7.67;5.77;;;12.10;42.70;;;;;;5014229;28;20177;-89
2021/04/24 06:47:00;;;;;;;7.10;5.50;;;12.00;43.20;;;;;;5013662;28;20645;-88
2021/04/24 06:49:26;;;;;;;6.40;5.60;;;10.80;41.60;;;;;;4996023;28;20195;-90
2021/04/24 06:51:55;;;;;;;6.67;5.33;;;12.40;42.10;;;;;;5013525;28;20256;-89
2021/04/24 06:54:20;;;;;;;7.03;6.30;;;13.40;42.10;;;;;;5012996;28;20173;-89
2021/04/24 06:56:46;;;;;;;7.90;6.30;;;13.30;41.00;;;;;;4995757;28;20478;-89
2021/04/24 06:59:11;;;;;;;7.07;5.80;;;13.10;40.70;;;;;;4997250;28;20173;-89
2021/04/24 07:01:37;;;;;;;7.43;5.90;;;13.10;41.50;;;;;;4999987;28;20749;-85
2021/04/24 07:04:03;;;;;;;6.70;5.97;;;13.40;41.40;;;;;;5000807;28;20262;-88
2021/04/24 07:06:28;;;;;;;6.37;5.80;;;13.60;40.80;;;;;;4999507;28;20238;-87
2021/04/24 07:08:57;;;;;;;11.80;6.43;;;13.90;41.00;;;;;;5000225;28;20169;-88
2021/04/24 07:11:22;;;;;;;11.40;6.20;;;14.30;40.20;;;;;;5000715;28;20687;-88
2021/04/24 07:13:48;;;;;;;7.93;7.27;;;13.70;40.50;;;;;;5000398;28;20424;-89
2021/04/24 07:16:14;;;;;;;8.83;6.63;;;13.50;42.20;;;;;;5017187;28;20276;-87
2021/04/24 07:18:40;;;;;;;9.37;6.77;;;11.90;42.50;;;;;;5017828;28;20574;-89
2021/04/24 07:21:07;;;;;;;6.07;5.67;;;11.90;44.00;;;;;;4676303;28;10000027;-88
2021/04/24 07:23:33;;;;;;;8.77;6.67;;;11.70;44.20;;;;;;5018430;28;20179;-87
2021/04/24 07:26:00;;;;;;;9.70;7.20;;;10.50;44.20;;;;;;5036134;28;20425;-88
2021/04/24 07:28:26;;;;;;;8.33;7.53;;;10.70;45.40;;;;;;5035572;28;20425;-89
2021/04/24 07:30:51;;;;;;;7.27;6.67;;;10.90;45.60;;;;;;5035775;28;20494;-87
2021/04/24 07:33:19;;;;;;;7.83;6.57;;;11.60;45.20;;;;;;5019611;28;20425;-91
2021/04/24 07:35:45;;;;;;;8.90;6.70;;;12.50;44.80;;;;;;5028615;28;20179;-88
2021/04/24 07:38:11;;;;;;;7.53;6.73;;;13.80;43.60;;;;;;5033653;28;20470;-88
2021/04/24 07:40:37;;;;;;;8.83;7.00;;;16.10;42.60;;;;;;5047102;28;20466;-89
2021/04/24 07:43:05;;;;;;;7.90;5.70;;;14.80;39.60;;;;;;5027740;28;20171;-88
2021/04/24 07:45:31;;;;;;;6.77;6.17;;;14.60;39.90;;;;;;5029745;28;20184;-88
2021/04/24 07:47:57;;;;;;;6.57;6.00;;;15.10;39.40;;;;;;5032521;28;20438;-88
2021/04/24 07:50:22;;;;;;;8.37;6.70;;;16.10;36.40;;;;;;5055350;28;20406;-85
2021/04/24 07:52:51;;;;;;;7.47;6.87;;;16.00;36.70;;;;;;5040286;28;20175;-87
2021/04/24 07:55:16;;;;;;;8.00;7.30;;;15.00;34.50;;;;;;5054143;28;20198;-87
2021/04/24 07:57:43;;;;;;;10.87;7.50;;;18.40;35.10;;;;;;5025559;28;21016;-89
2021/04/24 08:00:09;;;;;;;7.20;6.70;;;17.30;33.00;;;;;;5007820;28;20563;-89
2021/04/24 08:02:35;;;;;;;5.87;5.47;;;16.50;32.00;;;;;;5041063;28;20478;-88
2021/04/24 08:05:03;;;;;;;8.63;7.90;;;15.10;34.80;;;;;;5027434;28;20492;-89
2021/04/24 08:07:33;;;;;;;6.47;5.83;;;14.40;35.40;;;;;;5046990;28;20168;-89
2021/04/24 08:09:59;;;;;;;5.00;4.70;;;15.90;36.80;;;;;;5025428;28;20464;-91
2021/04/24 08:12:24;;;;;;;5.37;4.90;;;15.20;37.20;;;;;;5041068;28;20414;-88
2021/04/24 08:14:50;;;;;;;6.40;5.87;;;14.10;35.50;;;;;;5050826;28;20168;-87
2021/04/24 08:17:17;;;;;;;6.83;6.30;;;13.40;34.60;;;;;;5055527;28;20176;-88
2021/04/24 08:19:43;;;;;;;6.63;5.27;;;14.40;35.40;;;;;;5054249;28;20184;-88
2021/04/24 08:22:16;;;;;;;6.90;6.07;;;14.40;34.60;;;;;;5052089;28;20429;-90
2021/04/24 08:25:01;;;;;;;9.13;7.00;;;14.40;34.10;;;;;;5034374;28;20459;-88
2021/04/24 08:27:33;;;;;;;6.10;5.00;;;13.30;33.80;;;;;;5015986;28;20450;-90
2021/04/24 08:30:00;;;;;;;7.67;5.03;;;13.20;36.00;;;;;;5032285;28;20460;-87
2021/04/24 08:32:25;;;;;;;5.00;4.70;;;14.40;34.20;;;;;;5034200;28;20403;-89
2021/04/24 08:35:00;;;;;;;6.93;6.30;;;17.60;35.90;;;;;;5027670;28;20448;-88
2021/04/24 08:37:34;;;;;;;5.67;5.30;;;15.50;33.70;;;;;;5034557;28;20576;-89
2021/04/24 08:40:19;;;;;;;5.50;5.00;;;16.50;31.90;;;;;;5035693;28;20482;-89
2021/04/24 08:43:03;;;;;;;5.67;5.20;;;16.20;31.70;;;;;;5021032;28;20423;-87
2021/04/24 08:45:32;;;;;;;6.50;5.93;;;16.60;31.70;;;;;;5034330;28;20435;-90
2021/04/24 08:48:05;;;;;;;6.70;6.17;;;17.30;31.20;;;;;;5049621;28;20784;-90
2021/04/24 08:50:33;;;;;;;8.50;7.77;;;18.60;29.70;;;;;;5035148;28;20430;-89
2021/04/24 08:53:18;;;;;;;7.97;6.97;;;17.80;29.50;;;;;;5034260;28;20422;-89
2021/04/24 08:55:55;;;;;;;8.10;6.80;;;17.40;29.40;;;;;;5034786;28;20423;-90
2021/04/24 08:58:21;;;;;;;7.50;6.80;;;18.00;28.30;;;;;;5033746;28;20596;-89
2021/04/24 09:00:50;;;;;;;7.23;6.43;;;18.30;28.50;;;;;;5035427;28;20422;-88
2021/04/24 09:03:21;;;;;;;9.80;7.53;;;17.90;28.50;;;;;;5033559;28;20414;-87
2021/04/24 09:05:53;;;;;;;7.77;6.90;;;17.50;28.30;;;;;;5044327;28;20416;-89
2021/04/24 09:08:28;;;;;;;9.80;7.97;;;18.70;29.80;;;;;;5024926;28;20426;-88
2021/04/24 09:10:59;;;;;;;7.07;6.47;;;17.00;29.10;;;;;;5042876;28;20414;-90
2021/04/24 09:13:26;;;;;;;8.30;7.70;;;17.10;29.50;;;;;;5027036;28;20414;-91
2021/04/24 09:15:52;;;;;;;7.77;7.00;;;19.20;30.00;;;;;;5042076;28;20415;-88
2021/04/24 09:18:20;;;;;;;6.93;6.40;;;18.20;29.20;;;;;;5043969;28;20467;-89
2021/04/24 09:21:10;;;;;;;7.50;6.80;;;18.90;29.60;;;;;;5024840;28;20415;-90
2021/04/24 09:23:37;;;;;;;6.70;5.90;;;19.70;30.20;;;;;;5026169;28;20418;-89
2021/04/24 09:26:09;;;;;;;6.40;5.90;;;19.30;29.10;;;;;;5021704;28;20795;-87
2021/04/24 09:28:59;;;;;;;6.53;5.90;;;20.90;29.10;;;;;;5035951;28;20777;-88
2021/04/24 09:31:25;;;;;;;6.43;5.80;;;19.30;28.20;;;;;;5027849;28;20492;-87
2021/04/24 09:34:02;;;;;;;5.77;5.27;;;19.40;27.90;;;;;;5032622;28;20437;-89
2021/04/24 09:36:37;;;;;;;6.47;5.87;;;19.80;27.70;;;;;;5003670;28;20411;-88
2021/04/24 09:39:10;;;;;;;6.13;5.60;;;20.40;28.20;;;;;;5032299;28;20436;-90
2021/04/24 09:41:38;;;;;;;6.10;5.50;;;18.30;28.80;;;;;;5022985;28;20578;-85
2021/04/24 09:44:37;;;;;;;5.20;4.73;;;19.00;28.80;;;;;;5037879;28;20430;-88
2021/04/24 09:47:07;;;;;;;6.47;5.00;;;18.80;27.80;;;;;;5053232;28;20697;-89
2021/04/24 09:49:42;;;;;;;6.73;5.17;;;19.40;28.60;;;;;;5134665;22;20673;-87
2021/04/24 09:52:11;;;;;;;4.30;4.13;;;17.90;27.20;;;;;;5214582;22;20477;-89
2021/04/24 09:54:50;;;;;;;4.67;4.40;;;20.60;28.00;;;;;;5196588;22;20966;-92
2021/04/24 10:02:53;;;;;;;5.73;3.73;;;19.90;26.70;;;;;;5348591;22;20470;-88
2021/04/24 10:05:24;;;;;;;4.10;3.90;;;21.80;29.50;;;;;;5033935;28;20435;-89
2021/04/24 10:10:34;;;;;;;5.10;4.80;;;19.80;27.10;;;;;;5071128;23;20482;-86
2021/04/24 10:13:03;;;;;;;3.63;3.53;;;20.20;29.20;;;;;;5050899;28;20419;-88
2021/04/24 10:18:31;;;;;;;4.17;3.97;;;18.40;28.10;;;;;;5037940;28;20527;-83
2021/04/24 10:20:58;;;;;;;3.43;3.30;;;20.20;28.80;;;;;;5032849;28;20411;-85
2021/04/24 10:23:24;;;;;;;4.00;3.70;;;19.80;28.00;;;;;;4682162;28;10000335;-83
2021/04/24 10:25:49;;;;;;;7.80;7.20;;;18.40;27.50;;;;;;5010282;28;20211;-83
2021/04/24 10:28:16;;;;;;;8.93;3.83;;;18.70;27.90;;;;;;5010368;28;20411;-83
2021/04/24 10:30:42;;;;;;;4.43;4.20;;;19.60;27.70;;;;;;5009786;28;20222;-83
2021/04/24 10:33:08;;;;;;;3.77;3.43;;;20.40;26.90;;;;;;5010321;28;20513;-84
2021/04/24 10:35:33;;;;;;;3.40;3.40;;;19.40;26.80;;;;;;5013609;28;20451;-82
2021/04/24 10:38:01;;;;;;;4.00;3.80;;;19.40;27.00;;;;;;5014339;28;20204;-83
2021/04/24 10:40:27;;;;;;;5.20;4.67;;;19.90;27.00;;;;;;5014502;28;20175;-84
2021/04/24 10:42:58;;;;;;;3.90;3.60;;;20.70;26.70;;;;;;5019470;28;20416;-91
2021/04/24 10:45:33;;;;;;;3.27;3.07;;;21.30;26.40;;;;;;5004513;28;20260;-89
2021/04/24 10:48:21;;;;;;;3.70;3.47;;;21.00;26.60;;;;;;5006984;28;20433;-89
2021/04/24 10:50:48;;;;;;;3.63;3.47;;;21.40;26.40;;;;;;5029195;28;20972;-88
2021/04/24 10:53:24;;;;;;;4.00;3.80;;;22.60;26.20;;;;;;5015302;28;20507;-88
2021/04/24 10:55:54;;;;;;;3.67;3.50;;;22.00;25.90;;;;;;5035125;28;20463;-88
2021/04/24 10:58:25;;;;;;;13.50;9.70;;;21.70;25.70;;;;;;5030685;28;20466;-87
2021/04/24 11:00:57;;;;;;;12.73;8.40;;;23.90;27.10;;;;;;5028324;28;20427;-89
2021/04/24 11:03:35;;;;;;;4.20;4.10;;;24.10;26.90;;;;;;5005936;28;20542;-89
2021/04/24 11:06:27;;;;;;;7.33;6.00;;;20.40;25.00;;;;;;5003282;28;20415;-88
2021/04/24 11:09:18;;;;;;;18.00;16.23;;;22.10;26.60;;;;;;5001550;28;20495;-88
2021/04/24 11:11:49;;;;;;;6.87;5.90;;;21.90;25.90;;;;;;5007907;28;20420;-89
2021/04/24 11:14:18;;;;;;;4.53;4.33;;;21.90;25.80;;;;;;5027259;28;20400;-91
2021/04/24 11:16:45;;;;;;;3.90;3.80;;;21.50;25.60;;;;;;5004158;28;20453;-89
2021/04/24 11:19:31;;;;;;;4.80;4.60;;;21.20;25.00;;;;;;5000838;28;20514;-87
2021/04/24 11:22:49;;;;;;;4.80;4.43;;;18.10;24.90;;;;;;5014589;28;20435;-87
2021/04/24 11:25:17;;;;;;;4.17;3.90;;;18.80;25.60;;;;;;4987329;28;20419;-88
2021/04/24 11:28:13;;;;;;;7.70;5.40;;;21.80;27.10;;;;;;5032990;28;20434;-88
2021/04/24 11:31:08;;;;;;;3.90;3.70;;;20.30;26.10;;;;;;5023203;28;20419;-88
2021/04/24 11:33:37;;;;;;;5.30;5.00;;;21.70;25.50;;;;;;5021950;28;20437;-89
2021/04/24 11:36:27;;;;;;;4.70;4.40;;;22.30;25.70;;;;;;5038063;28;20882;-90
2021/04/24 11:39:03;;;;;;;4.50;4.30;;;22.00;25.00;;;;;;5033402;28;20462;-90
2021/04/24 11:41:38;;;;;;;5.10;4.57;;;21.60;25.40;;;;;;5018314;28;20399;-87
2021/04/24 11:44:20;;;;;;;4.67;4.37;;;20.90;25.00;;;;;;5018315;28;20422;-88
2021/04/24 11:46:48;;;;;;;4.20;3.80;;;18.00;24.70;;;;;;4999990;28;20431;-90
2021/04/24 11:49:18;;;;;;;6.93;4.87;;;19.10;25.60;;;;;;5006539;28;20427;-89
2021/04/24 11:52:08;;;;;;;5.83;5.40;;;22.50;27.70;;;;;;5005412;28;20483;-90
2021/04/24 11:54:42;;;;;;;4.70;4.40;;;20.70;26.20;;;;;;5006226;28;20419;-89
2021/04/24 11:57:10;;;;;;;84.43;56.33;;;21.70;27.30;;;;;;5006403;28;20471;-86
2021/04/24 11:59:37;;;;;;;8.30;7.60;;;22.30;28.10;;;;;;5024413;28;20407;-88
2021/04/24 12:02:17;;;;;;;17.67;15.80;;;17.50;26.50;;;;;;5004268;28;20416;-89
2021/04/24 12:04:44;;;;;;;7.93;5.33;;;18.80;27.60;;;;;;5018231;28;20407;-88
2021/04/24 12:07:12;;;;;;;4.90;4.60;;;19.70;27.30;;;;;;5016679;28;20507;-86
2021/04/24 12:09:45;;;;;;;6.50;5.63;;;20.90;26.70;;;;;;5018776;28;20482;-90
2021/04/24 12:12:12;;;;;;;19.50;12.83;;;22.60;27.00;;;;;;5017576;28;20415;-90
2021/04/24 12:14:37;;;;;;;18.30;12.10;;;22.30;26.90;;;;;;5016654;28;20812;-89
2021/04/24 12:17:11;;;;;;;9.23;7.40;;;19.80;26.00;;;;;;5017315;28;20514;-90
2021/04/24 12:19:39;;;;;;;5.50;5.00;;;20.60;26.80;;;;;;5019128;28;20276;-90
2021/04/24 12:22:20;;;;;;;5.80;5.40;;;21.60;27.00;;;;;;5017903;28;20813;-87
2021/04/24 12:24:54;;;;;;;6.37;4.93;;;22.50;26.10;;;;;;4667641;28;10000307;-88
2021/04/24 12:27:39;;;;;;;8.13;6.27;;;22.30;25.60;;;;;;5050364;28;20179;-91
2021/04/24 12:30:11;;;;;;;5.07;4.67;;;24.10;29.00;;;;;;5050711;28;20481;-90
2021/04/24 12:32:50;;;;;;;5.87;5.57;;;21.00;26.40;;;;;;5034179;28;20442;-89
2021/04/24 12:35:37;;;;;;;5.17;4.97;;;21.60;26.40;;;;;;5050457;28;20484;-88
2021/04/24 12:38:06;;;;;;;4.93;4.63;;;21.20;26.60;;;;;;5030496;28;20454;-91
2021/04/24 12:40:52;;;;;;;6.83;5.00;;;22.50;26.50;;;;;;5028157;28;20441;-90
2021/04/24 12:43:21;;;;;;;5.77;5.13;;;23.50;26.10;;;;;;5048593;28;20482;-88
2021/04/24 12:45:48;;;;;;;5.17;4.97;;;22.90;25.50;;;;;;5029569;28;20433;-88
2021/04/24 12:48:43;;;;;;;6.50;6.00;;;23.50;25.80;;;;;;5030336;28;20471;-87
2021/04/24 12:51:14;;;;;;;5.40;5.10;;;21.80;25.70;;;;;;5026633;28;20445;-90
2021/04/24 12:53:44;;;;;;;6.07;5.57;;;22.30;26.10;;;;;;5030555;28;20438;-89
2021/04/24 12:56:24;;;;;;;5.33;5.03;;;22.20;26.60;;;;;;5029261;28;20395;-90
2021/04/24 12:58:58;;;;;;;5.93;5.47;;;21.80;26.10;;;;;;5047798;28;20470;-88
2021/04/24 13:01:33;;;;;;;4.70;4.50;;;22.80;27.20;;;;;;5027778;28;20411;-90
2021/04/24 13:04:14;;;;;;;6.10;5.57;;;21.00;26.50;;;;;;5028745;28;20905;-88
2021/04/24 13:06:53;;;;;;;5.60;5.33;;;20.80;26.60;;;;;;5010586;28;20454;-87
2021/04/24 13:09:20;;;;;;;6.13;5.63;;;20.70;26.70;;;;;;5018532;28;20458;-89
2021/04/24 13:11:48;;;;;;;6.10;5.70;;;22.80;29.30;;;;;;5025735;28;20423;-90